createdAt,value
2022-10-19T06:24:06.833Z,42.62
2022-10-19T06:26:35.941Z,41.33
2022-10-19T06:29:05.255Z,40.76
2022-10-19T06:31:36.430Z,40.11
2022-10-19T06:34:05.088Z,40.12
2022-10-19T06:36:33.561Z,40.44
2022-10-19T06:39:02.247Z,39.60
2022-10-19T06:41:31.628Z,39.47
2022-10-19T06:44:03.197Z,39.77
2022-10-19T06:46:32.600Z,38.81
2022-10-19T06:49:02.247Z,38.50
2022-10-19T06:51:32.285Z,38.36
2022-10-19T06:54:38.376Z,38.29
2022-10-19T06:57:08.141Z,38.33
2022-10-19T06:59:36.696Z,39.01
2022-10-19T07:02:05.484Z,38.52
2022-10-19T07:04:33.774Z,37.28
2022-10-19T07:07:01.855Z,37.68
2022-10-19T07:09:29.928Z,38.92
2022-10-19T07:11:58.277Z,38.64
2022-10-19T07:14:28.571Z,37.92
2022-10-19T07:16:57.377Z,36.98
2022-10-19T07:19:27.088Z,36.45
2022-10-19T07:21:55.527Z,36.66
2022-10-19T07:24:24.065Z,37.00
2022-10-19T07:26:52.145Z,37.25
2022-10-19T07:29:20.152Z,35.99
2022-10-19T07:31:48.491Z,35.33
2022-10-19T07:34:16.889Z,34.87
2022-10-19T07:36:48.145Z,34.18
2022-10-19T07:39:19.669Z,33.83
2022-10-19T07:41:48.083Z,33.78
2022-10-19T07:44:16.834Z,34.61
2022-10-19T07:46:45.408Z,34.96
2022-10-19T07:49:16.586Z,35.91
2022-10-19T07:51:47.552Z,36.64
2022-10-19T07:54:16.309Z,36.62
2022-10-19T07:56:44.356Z,39.37
2022-10-19T07:59:14.927Z,40.58
2022-10-19T08:01:44.194Z,41.19
2022-10-19T08:07:00.961Z,43.05
2022-10-19T08:12:18.317Z,43.83
2022-10-19T08:14:48.154Z,43.91
2022-10-19T08:17:17.782Z,44.21
2022-10-19T08:19:47.295Z,44.05
2022-10-19T08:22:15.622Z,43.93
2022-10-19T08:24:45.466Z,43.50
2022-10-19T08:27:15.067Z,44.07
2022-10-19T08:29:43.109Z,44.50
2022-10-19T08:32:11.263Z,44.09
2022-10-19T08:34:39.487Z,43.93
2022-10-19T08:37:19.707Z,43.88
2022-10-19T08:39:55.702Z,43.50
2022-10-19T08:42:48.349Z,43.59
2022-10-19T08:45:37.499Z,44.33
2022-10-19T08:48:29.248Z,44.72
2022-10-19T08:50:59.163Z,45.40
2022-10-19T08:53:37.767Z,45.88
2022-10-19T08:56:49.410Z,46.17
2022-10-19T08:59:30.334Z,46.59
2022-10-19T09:02:20.671Z,47.86
2022-10-19T09:04:54.827Z,48.33
2022-10-19T09:07:45.341Z,48.07
2022-10-19T09:10:13.528Z,47.76
2022-10-19T09:12:47.637Z,47.91
2022-10-19T09:15:25.157Z,48.40
2022-10-19T09:17:53.520Z,48.26
2022-10-19T09:20:38.176Z,48.09
2022-10-19T09:23:31.116Z,48.72
2022-10-19T09:25:59.689Z,49.49
2022-10-19T09:28:38.916Z,49.34
2022-10-19T09:31:36.983Z,49.92
2022-10-19T09:34:24.197Z,50.51
2022-10-19T09:36:57.685Z,51.97
2022-10-19T09:39:29.556Z,53.94
2022-10-19T09:41:59.693Z,55.55
2022-10-19T09:44:27.743Z,55.47
2022-10-19T09:47:13.719Z,55.24
2022-10-19T09:49:47.823Z,55.80
2022-10-19T09:52:23.702Z,55.21
2022-10-19T09:55:03.811Z,55.31
2022-10-19T09:57:32.262Z,54.67
2022-10-19T10:00:03.291Z,54.61
2022-10-19T10:02:33.761Z,54.38
2022-10-19T10:05:07.018Z,53.73
2022-10-19T10:07:39.127Z,53.47
2022-10-19T10:10:32.520Z,53.75
2022-10-19T10:13:01.031Z,53.55
2022-10-19T10:15:36.100Z,53.03
2022-10-19T10:18:04.215Z,52.19
2022-10-19T10:20:32.835Z,51.74
2022-10-19T10:23:04.267Z,52.23
2022-10-19T10:25:36.282Z,52.17
2022-10-19T10:28:25.666Z,51.54
2022-10-19T10:31:06.577Z,52.00
2022-10-19T10:33:44.921Z,52.97
2022-10-19T10:36:13.940Z,52.83
2022-10-19T10:38:54.637Z,51.33
2022-10-19T10:41:23.966Z,50.80
2022-10-19T10:44:06.748Z,49.96
2022-10-19T10:46:42.821Z,49.44
2022-10-19T10:49:21.849Z,48.06
2022-10-19T10:52:00.564Z,47.06
2022-10-19T10:54:31.445Z,42.01
2022-10-19T10:57:09.876Z,39.67
2022-10-19T10:59:57.836Z,40.28
2022-10-19T11:02:56.058Z,39.88
2022-10-19T11:05:26.784Z,40.72
2022-10-19T11:08:15.424Z,40.10
2022-10-19T11:10:47.100Z,40.55
2022-10-19T11:13:29.394Z,41.20
2022-10-19T11:16:02.983Z,41.63
2022-10-19T11:18:36.330Z,41.67
2022-10-19T11:21:09.994Z,41.92
2022-10-19T11:23:58.222Z,42.87
2022-10-19T11:26:39.708Z,43.67
2022-10-19T11:29:33.278Z,43.98
2022-10-19T11:32:02.006Z,44.33
2022-10-19T11:34:59.729Z,44.68
2022-10-19T11:38:22.656Z,45.12
2022-10-19T11:41:19.039Z,44.85
2022-10-19T11:44:11.881Z,44.65
2022-10-19T11:46:52.439Z,44.66
2022-10-19T11:49:35.764Z,45.05
2022-10-19T11:52:20.736Z,44.96
2022-10-19T11:55:19.069Z,44.62
2022-10-19T11:58:06.947Z,45.28
2022-10-19T12:00:49.315Z,45.63
2022-10-19T12:03:51.243Z,46.12
2022-10-19T12:06:31.231Z,46.20
2022-10-19T12:09:13.007Z,46.23
2022-10-19T12:12:01.378Z,46.31
2022-10-19T12:14:36.510Z,46.34
2022-10-19T12:17:28.454Z,45.76
2022-10-19T12:20:02.602Z,45.77
2022-10-19T12:22:31.784Z,45.90
2022-10-19T12:25:02.155Z,46.12
2022-10-19T12:27:35.446Z,46.45
2022-10-19T12:30:29.108Z,46.82
2022-10-19T12:33:20.528Z,46.61
2022-10-19T12:36:04.433Z,46.84
2022-10-19T12:38:45.951Z,47.03
2022-10-19T12:41:34.886Z,47.49
2022-10-19T12:44:12.255Z,47.35
2022-10-19T12:46:48.395Z,47.55
2022-10-19T12:49:29.102Z,47.09
2022-10-19T12:51:59.261Z,47.32
2022-10-19T12:54:30.684Z,47.53
2022-10-19T12:57:00.962Z,47.42
2022-10-19T12:59:31.896Z,47.53
2022-10-19T13:02:04.706Z,48.23
2022-10-19T13:04:35.998Z,48.53
2022-10-19T13:07:08.364Z,49.00
2022-10-19T13:09:45.986Z,49.52
2022-10-19T13:12:17.653Z,50.31
2022-10-19T13:15:02.720Z,51.20
2022-10-19T13:17:37.365Z,51.57
2022-10-19T13:20:14.978Z,51.50
2022-10-19T13:23:05.954Z,51.40
2022-10-19T13:25:35.187Z,51.91
2022-10-19T13:28:06.114Z,52.25
2022-10-19T13:31:04.916Z,52.71
2022-10-19T13:33:46.632Z,52.73
2022-10-19T13:36:16.101Z,52.91
2022-10-19T13:38:44.271Z,53.05
2022-10-19T13:41:27.472Z,53.04
2022-10-19T13:44:14.536Z,52.80
2022-10-19T13:47:01.090Z,52.92
2022-10-19T13:49:48.132Z,53.81
2022-10-19T13:52:51.630Z,54.20
2022-10-19T13:55:28.824Z,54.11
2022-10-19T13:58:27.965Z,54.77
2022-10-19T14:00:55.772Z,56.13
2022-10-19T14:03:29.929Z,56.68
2022-10-19T14:06:02.889Z,57.13
2022-10-19T14:08:54.885Z,57.43
2022-10-19T14:11:36.749Z,57.81
2022-10-19T14:14:10.739Z,58.29
2022-10-19T14:16:47.450Z,58.48
2022-10-19T14:19:27.276Z,58.97
2022-10-19T14:22:01.653Z,59.36
2022-10-19T14:24:35.260Z,59.38
2022-10-19T14:27:06.295Z,59.59
2022-10-19T14:29:46.209Z,59.54
2022-10-19T14:32:14.565Z,59.83
2022-10-19T14:34:44.479Z,60.14
2022-10-19T14:37:26.815Z,60.72
2022-10-19T14:40:28.092Z,60.55
2022-10-19T14:42:58.774Z,60.77
2022-10-19T14:45:32.612Z,60.98
2022-10-19T14:48:07.056Z,61.00
2022-10-19T14:50:35.138Z,61.44
2022-10-19T14:53:25.313Z,62.33
2022-10-19T14:55:56.835Z,63.13
2022-10-19T14:58:29.833Z,64.09
2022-10-19T15:00:58.535Z,64.39
2022-10-19T15:03:28.957Z,64.98
2022-10-19T15:06:02.687Z,65.70
2022-10-19T15:08:47.940Z,66.53
2022-10-19T15:11:22.207Z,67.19
2022-10-19T15:14:16.251Z,67.92
2022-10-19T15:16:51.101Z,68.40
2022-10-19T15:19:31.170Z,68.82
2022-10-19T15:22:14.536Z,69.28
2022-10-19T15:25:23.506Z,69.83
2022-10-19T15:27:53.895Z,70.03
2022-10-19T15:30:26.498Z,69.96
2022-10-19T15:33:01.216Z,69.91
2022-10-19T15:35:37.561Z,70.28
2022-10-19T15:38:21.569Z,70.29
2022-10-19T15:40:57.193Z,70.69
2022-10-19T15:43:32.674Z,70.90
2022-10-19T15:46:12.648Z,71.03
2022-10-19T15:48:40.718Z,70.72
2022-10-19T15:51:23.970Z,70.74
2022-10-19T15:53:53.995Z,70.56
2022-10-19T15:56:24.637Z,70.58
2022-10-19T15:58:54.887Z,70.73
2022-10-19T16:01:33.655Z,70.81
2022-10-19T16:04:02.395Z,70.86
2022-10-19T16:06:33.477Z,70.68
2022-10-19T16:09:02.492Z,70.64
2022-10-19T16:11:34.009Z,70.55
2022-10-19T16:14:02.389Z,70.62
2022-10-19T16:16:32.673Z,71.04
2022-10-19T16:19:01.187Z,71.01
2022-10-19T16:21:34.160Z,71.30
2022-10-19T16:24:02.692Z,71.18
2022-10-19T16:26:32.280Z,71.15
2022-10-19T16:29:01.770Z,71.26
2022-10-19T16:31:31.484Z,71.53
2022-10-19T16:33:59.611Z,71.59
2022-10-19T16:36:27.769Z,71.64
2022-10-19T16:38:56.000Z,71.62
2022-10-19T16:41:24.146Z,71.61
2022-10-19T16:43:56.555Z,71.81
2022-10-19T16:46:26.101Z,72.01
2022-10-19T16:48:55.390Z,71.73
2022-10-19T16:51:32.357Z,71.55
2022-10-19T16:54:00.611Z,71.16
2022-10-19T16:56:30.836Z,71.03
2022-10-19T16:59:05.018Z,70.96
2022-10-19T17:01:34.767Z,71.06
2022-10-19T17:04:02.759Z,71.43
2022-10-19T17:06:33.161Z,71.71
2022-10-19T17:11:49.247Z,72.34
2022-10-19T17:14:17.204Z,72.38
2022-10-19T17:16:45.286Z,72.80
2022-10-19T17:19:13.562Z,72.86
2022-10-19T17:21:42.550Z,73.50
2022-10-19T17:24:21.606Z,73.93
2022-10-19T17:26:52.997Z,74.34
2022-10-19T17:29:22.835Z,74.15
2022-10-19T17:31:51.152Z,74.53
2022-10-19T17:34:19.804Z,74.23
2022-10-19T17:36:48.421Z,74.04
2022-10-19T17:39:19.428Z,73.79
2022-10-19T17:41:49.444Z,73.87
2022-10-19T17:44:18.813Z,73.65
2022-10-19T17:46:47.333Z,73.46
2022-10-19T17:49:16.445Z,73.54
2022-10-19T17:51:44.600Z,73.63
2022-10-19T17:54:14.482Z,73.29
2022-10-19T17:56:45.467Z,72.93
2022-10-19T17:59:14.082Z,72.84
2022-10-19T18:01:42.592Z,72.61
2022-10-19T18:04:11.195Z,72.50
2022-10-19T18:06:39.780Z,72.30
2022-10-19T18:09:10.183Z,72.36
2022-10-19T18:11:42.153Z,72.44
2022-10-19T18:14:13.257Z,72.86
2022-10-19T18:16:47.522Z,73.09
2022-10-19T18:19:17.028Z,73.19
2022-10-19T18:21:47.963Z,73.65
2022-10-19T18:24:20.114Z,73.78
2022-10-19T18:26:51.153Z,73.68
2022-10-19T18:29:21.948Z,73.70
2022-10-19T18:31:55.081Z,74.14
2022-10-19T18:34:26.748Z,74.60
2022-10-19T18:36:55.350Z,75.10
2022-10-19T18:39:23.814Z,75.22
2022-10-19T18:41:56.250Z,75.23
2022-10-19T18:44:26.526Z,75.22
2022-10-19T18:46:57.129Z,75.68
2022-10-19T18:49:25.948Z,76.52
2022-10-19T18:51:55.658Z,76.59
2022-10-19T18:54:26.581Z,76.90
2022-10-19T18:56:55.576Z,77.04
2022-10-19T18:59:24.005Z,77.40
2022-10-19T19:01:52.507Z,77.69
2022-10-19T19:04:21.003Z,77.58
2022-10-19T19:06:49.382Z,77.61
2022-10-19T19:09:19.189Z,77.37
2022-10-19T19:11:47.370Z,76.94
2022-10-19T19:14:17.895Z,76.45
2022-10-19T19:16:46.583Z,76.38
2022-10-19T19:19:16.704Z,76.12
2022-10-19T19:21:46.108Z,75.88
2022-10-19T19:24:15.675Z,75.72
2022-10-19T19:26:48.393Z,75.64
2022-10-19T19:29:18.034Z,75.05
2022-10-19T19:31:47.424Z,75.04
2022-10-19T19:34:15.778Z,74.42
2022-10-19T19:36:48.635Z,75.13
2022-10-19T19:39:20.852Z,74.66
2022-10-19T19:41:50.162Z,74.12
2022-10-19T19:44:18.927Z,73.61
2022-10-19T19:46:47.231Z,73.22
2022-10-19T19:49:15.359Z,72.72
2022-10-19T19:51:43.297Z,71.18
2022-10-19T19:54:12.418Z,70.14
2022-10-19T19:56:42.542Z,69.67
2022-10-19T19:59:12.834Z,69.25
2022-10-19T20:01:41.429Z,69.32
2022-10-19T20:04:10.726Z,69.88
2022-10-19T20:06:40.836Z,69.44
2022-10-19T20:09:10.873Z,70.04
2022-10-19T20:11:42.343Z,70.34
2022-10-19T20:14:12.220Z,70.31
2022-10-19T20:16:41.032Z,70.70
2022-10-19T20:19:11.872Z,70.83
2022-10-19T20:21:41.259Z,70.80
2022-10-19T20:24:10.364Z,70.70
2022-10-19T20:26:38.741Z,71.11
2022-10-19T20:29:06.935Z,70.85
2022-10-19T20:31:39.732Z,70.41
2022-10-19T20:34:14.189Z,70.29
2022-10-19T20:36:43.144Z,69.79
2022-10-19T20:39:11.289Z,68.77
2022-10-19T20:41:39.560Z,67.95
2022-10-19T20:44:08.035Z,68.20
2022-10-19T20:46:37.438Z,67.91
2022-10-19T20:49:05.579Z,67.87
2022-10-19T20:51:36.975Z,67.41
2022-10-19T20:54:10.153Z,67.65
2022-10-19T20:56:40.368Z,67.39
2022-10-19T20:59:13.077Z,66.72
2022-10-19T21:01:43.762Z,66.76
2022-10-19T21:04:14.602Z,65.89
2022-10-19T21:06:48.709Z,65.83
2022-10-19T21:09:19.435Z,65.73
2022-10-19T21:11:50.310Z,64.86
2022-10-19T21:14:28.583Z,65.06
2022-10-19T21:16:58.430Z,64.78
2022-10-19T21:19:29.340Z,65.05
2022-10-19T21:22:02.153Z,64.78
2022-10-19T21:24:33.037Z,64.01
2022-10-19T21:27:05.441Z,64.35
2022-10-19T21:29:33.830Z,63.84
2022-10-19T21:32:02.231Z,63.30
2022-10-19T21:34:31.605Z,63.05
2022-10-19T21:36:59.734Z,62.46
2022-10-19T21:39:28.251Z,62.36
2022-10-19T21:41:56.749Z,62.20
2022-10-19T21:44:24.707Z,61.48
2022-10-19T21:46:52.878Z,61.21
2022-10-19T21:49:21.039Z,60.80
2022-10-19T21:51:52.214Z,60.15
2022-10-19T21:54:25.071Z,60.08
2022-10-19T21:56:55.229Z,60.92
2022-10-19T21:59:23.283Z,60.63
2022-10-19T22:01:51.504Z,60.44
2022-10-19T22:04:19.741Z,60.33
2022-10-19T22:06:48.507Z,60.63
2022-10-19T22:09:20.976Z,61.77
2022-10-19T22:11:49.568Z,61.14
2022-10-19T22:14:18.351Z,61.77
2022-10-19T22:16:46.728Z,61.45
2022-10-19T22:19:15.022Z,61.66
2022-10-19T22:21:43.069Z,61.78
2022-10-19T22:24:14.089Z,62.03
2022-10-19T22:26:45.601Z,63.45
2022-10-19T22:29:14.134Z,63.02
2022-10-19T22:31:43.229Z,62.83
2022-10-19T22:34:15.005Z,63.04
2022-10-19T22:36:44.195Z,63.76
2022-10-19T22:39:12.699Z,63.77
2022-10-19T22:41:40.943Z,64.62
2022-10-19T22:44:09.459Z,65.01
2022-10-19T22:46:37.514Z,64.20
2022-10-19T22:49:05.626Z,64.21
2022-10-19T22:51:33.888Z,64.73
2022-10-19T22:54:02.078Z,65.50
2022-10-19T22:56:30.274Z,64.29
2022-10-19T22:58:59.904Z,64.12
2022-10-19T23:01:28.695Z,64.18
2022-10-19T23:03:57.265Z,63.70
2022-10-19T23:06:26.159Z,63.84
2022-10-19T23:08:54.651Z,63.55
2022-10-19T23:11:23.013Z,63.54
2022-10-19T23:13:51.093Z,63.99
2022-10-19T23:16:19.040Z,63.74
2022-10-19T23:18:47.430Z,63.10
2022-10-19T23:21:15.705Z,63.69
2022-10-19T23:23:43.851Z,63.68
2022-10-19T23:26:18.018Z,63.82
2022-10-19T23:28:48.823Z,63.97
2022-10-19T23:31:20.155Z,64.14
2022-10-19T23:33:48.041Z,64.80
2022-10-19T23:36:21.740Z,66.05
2022-10-19T23:38:51.546Z,66.26
2022-10-19T23:41:21.195Z,66.81
2022-10-19T23:43:49.626Z,67.43
2022-10-19T23:46:17.707Z,67.97
2022-10-19T23:48:46.061Z,68.59
2022-10-19T23:51:16.762Z,69.22
2022-10-19T23:53:46.735Z,69.42
2022-10-19T23:56:19.459Z,70.25
2022-10-19T23:58:48.917Z,70.28
